sensor_id;sensor_type;location;lat;lon;timestamp;pressure;altitude;pressure_sealevel;temperature;humidity
49645;BME280;36494;50.730;-1.932;2023-03-16T00:01:40;100532.95;;;8.76;100.00
49645;BME280;36494;50.730;-1.932;2023-03-16T00:04:05;100538.21;;;8.76;100.00
49645;BME280;36494;50.730;-1.932;2023-03-16T00:06:31;100533.47;;;8.78;100.00
49645;BME280;36494;50.730;-1.932;2023-03-16T00:08:56;100524.02;;;8.77;100.00
49645;BME280;36494;50.730;-1.932;2023-03-16T00:11:21;100521.57;;;8.74;100.00
49645;BME280;36494;50.730;-1.932;2023-03-16T00:13:46;100526.09;;;8.74;100.00
49645;BME280;36494;50.730;-1.932;2023-03-16T00:16:11;100525.35;;;8.78;100.00
49645;BME280;36494;50.730;-1.932;2023-03-16T00:18:37;100519.51;;;8.80;100.00
49645;BME280;36494;50.730;-1.932;2023-03-16T00:21:02;100516.75;;;8.80;100.00
49645;BME280;36494;50.730;-1.932;2023-03-16T00:23:27;100512.94;;;8.77;100.00
49645;BME280;36494;50.730;-1.932;2023-03-16T00:25:53;100517.85;;;8.79;100.00
49645;BME280;36494;50.730;-1.932;2023-03-16T00:28:17;100511.51;;;8.80;100.00
49645;BME280;36494;50.730;-1.932;2023-03-16T00:30:43;100513.67;;;8.84;100.00
49645;BME280;36494;50.730;-1.932;2023-03-16T00:33:08;100511.64;;;8.81;100.00
49645;BME280;36494;50.730;-1.932;2023-03-16T00:35:33;100506.01;;;8.88;100.00
49645;BME280;36494;50.730;-1.932;2023-03-16T00:37:59;100500.85;;;8.83;100.00
49645;BME280;36494;50.730;-1.932;2023-03-16T00:40:24;100496.98;;;8.83;100.00
49645;BME280;36494;50.730;-1.932;2023-03-16T00:42:49;100495.70;;;8.77;100.00
49645;BME280;36494;50.730;-1.932;2023-03-16T00:45:15;100488.87;;;8.82;100.00
49645;BME280;36494;50.730;-1.932;2023-03-16T00:47:40;100488.16;;;8.75;100.00
49645;BME280;36494;50.730;-1.932;2023-03-16T00:50:06;100482.09;;;8.77;100.00
49645;BME280;36494;50.730;-1.932;2023-03-16T00:52:31;100473.82;;;8.78;100.00
49645;BME280;36494;50.730;-1.932;2023-03-16T00:54:57;100472.35;;;8.84;100.00
49645;BME280;36494;50.730;-1.932;2023-03-16T00:57:24;100471.18;;;8.86;100.00
49645;BME280;36494;50.730;-1.932;2023-03-16T00:59:47;100466.65;;;8.87;100.00
49645;BME280;36494;50.730;-1.932;2023-03-16T01:02:14;100460.95;;;8.84;100.00
49645;BME280;36494;50.730;-1.932;2023-03-16T01:04:38;100456.28;;;8.80;100.00
49645;BME280;36494;50.730;-1.932;2023-03-16T01:07:03;100452.79;;;8.75;100.00
49645;BME280;36494;50.730;-1.932;2023-03-16T01:09:28;100457.00;;;8.75;100.00
49645;BME280;36494;50.730;-1.932;2023-03-16T01:11:53;100459.30;;;8.77;100.00
49645;BME280;36494;50.730;-1.932;2023-03-16T01:14:19;100461.96;;;8.83;100.00
49645;BME280;36494;50.730;-1.932;2023-03-16T01:16:44;100456.56;;;8.80;100.00
49645;BME280;36494;50.730;-1.932;2023-03-16T01:19:09;100449.53;;;8.76;100.00
49645;BME280;36494;50.730;-1.932;2023-03-16T01:21:34;100448.79;;;8.80;100.00
49645;BME280;36494;50.730;-1.932;2023-03-16T01:23:59;100447.03;;;8.70;100.00
49645;BME280;36494;50.730;-1.932;2023-03-16T01:26:25;100445.74;;;8.72;100.00
49645;BME280;36494;50.730;-1.932;2023-03-16T01:28:50;100444.54;;;8.77;100.00
49645;BME280;36494;50.730;-1.932;2023-03-16T01:31:16;100439.03;;;8.77;100.00
49645;BME280;36494;50.730;-1.932;2023-03-16T01:33:42;100435.91;;;8.72;100.00
49645;BME280;36494;50.730;-1.932;2023-03-16T01:36:09;100437.56;;;8.71;100.00
49645;BME280;36494;50.730;-1.932;2023-03-16T01:38:32;100435.43;;;8.71;100.00
49645;BME280;36494;50.730;-1.932;2023-03-16T01:40:57;100433.03;;;8.75;100.00
49645;BME280;36494;50.730;-1.932;2023-03-16T01:43:24;100427.44;;;8.70;100.00
49645;BME280;36494;50.730;-1.932;2023-03-16T01:48:13;100428.25;;;8.75;100.00
49645;BME280;36494;50.730;-1.932;2023-03-16T01:50:37;100422.12;;;8.71;100.00
49645;BME280;36494;50.730;-1.932;2023-03-16T01:53:03;100419.09;;;8.71;100.00
49645;BME280;36494;50.730;-1.932;2023-03-16T01:55:28;100419.27;;;8.65;100.00
49645;BME280;36494;50.730;-1.932;2023-03-16T01:57:54;100411.43;;;8.69;100.00
49645;BME280;36494;50.730;-1.932;2023-03-16T02:00:20;100412.23;;;8.62;100.00
49645;BME280;36494;50.730;-1.932;2023-03-16T02:02:47;100409.67;;;8.72;100.00
49645;BME280;36494;50.730;-1.932;2023-03-16T02:05:12;100407.94;;;8.69;100.00
49645;BME280;36494;50.730;-1.932;2023-03-16T02:07:40;100408.77;;;8.75;100.00
49645;BME280;36494;50.730;-1.932;2023-03-16T02:10:02;100401.62;;;8.69;100.00
49645;BME280;36494;50.730;-1.932;2023-03-16T02:12:26;100399.54;;;8.70;100.00
49645;BME280;36494;50.730;-1.932;2023-03-16T02:14:51;100393.13;;;8.72;100.00
49645;BME280;36494;50.730;-1.932;2023-03-16T02:17:19;100393.24;;;8.64;100.00
49645;BME280;36494;50.730;-1.932;2023-03-16T02:19:50;100390.19;;;8.73;100.00
49645;BME280;36494;50.730;-1.932;2023-03-16T02:22:08;100388.65;;;8.73;100.00
49645;BME280;36494;50.730;-1.932;2023-03-16T02:24:32;100388.97;;;8.69;100.00
49645;BME280;36494;50.730;-1.932;2023-03-16T02:27:00;100384.74;;;8.70;100.00
49645;BME280;36494;50.730;-1.932;2023-03-16T02:31:48;100381.82;;;8.81;100.00
49645;BME280;36494;50.730;-1.932;2023-03-16T02:34:14;100380.39;;;8.80;100.00
49645;BME280;36494;50.730;-1.932;2023-03-16T02:36:39;100377.95;;;8.81;100.00
49645;BME280;36494;50.730;-1.932;2023-03-16T02:39:04;100374.65;;;8.82;100.00
49645;BME280;36494;50.730;-1.932;2023-03-16T02:41:29;100377.13;;;8.87;100.00
49645;BME280;36494;50.730;-1.932;2023-03-16T02:43:57;100372.84;;;8.84;100.00
49645;BME280;36494;50.730;-1.932;2023-03-16T02:46:23;100372.36;;;8.77;100.00
49645;BME280;36494;50.730;-1.932;2023-03-16T02:48:49;100364.15;;;8.68;100.00
49645;BME280;36494;50.730;-1.932;2023-03-16T02:51:11;100365.39;;;8.75;100.00
49645;BME280;36494;50.730;-1.932;2023-03-16T02:53:36;100358.35;;;8.73;100.00
49645;BME280;36494;50.730;-1.932;2023-03-16T02:56:02;100354.11;;;8.72;100.00
49645;BME280;36494;50.730;-1.932;2023-03-16T02:58:26;100351.95;;;8.76;100.00
49645;BME280;36494;50.730;-1.932;2023-03-16T03:00:52;100357.83;;;8.70;100.00
49645;BME280;36494;50.730;-1.932;2023-03-16T03:03:17;100357.62;;;8.71;100.00
49645;BME280;36494;50.730;-1.932;2023-03-16T03:05:42;100356.97;;;8.71;100.00
49645;BME280;36494;50.730;-1.932;2023-03-16T03:08:08;100360.66;;;8.80;100.00
49645;BME280;36494;50.730;-1.932;2023-03-16T03:10:33;100361.59;;;8.81;100.00
49645;BME280;36494;50.730;-1.932;2023-03-16T03:12:58;100350.52;;;8.71;100.00
49645;BME280;36494;50.730;-1.932;2023-03-16T03:15:24;100350.54;;;8.77;100.00
49645;BME280;36494;50.730;-1.932;2023-03-16T03:17:50;100345.91;;;8.68;100.00
49645;BME280;36494;50.730;-1.932;2023-03-16T03:20:16;100349.03;;;8.75;100.00
49645;BME280;36494;50.730;-1.932;2023-03-16T03:22:41;100343.20;;;8.72;100.00
49645;BME280;36494;50.730;-1.932;2023-03-16T03:25:06;100340.36;;;8.81;100.00
49645;BME280;36494;50.730;-1.932;2023-03-16T03:27:30;100335.57;;;8.77;100.00
49645;BME280;36494;50.730;-1.932;2023-03-16T03:29:55;100331.66;;;8.73;100.00
49645;BME280;36494;50.730;-1.932;2023-03-16T03:32:21;100337.01;;;8.68;100.00
49645;BME280;36494;50.730;-1.932;2023-03-16T03:34:46;100338.27;;;8.67;100.00
49645;BME280;36494;50.730;-1.932;2023-03-16T03:37:11;100335.45;;;8.78;100.00
49645;BME280;36494;50.730;-1.932;2023-03-16T03:39:36;100336.51;;;8.69;100.00
49645;BME280;36494;50.730;-1.932;2023-03-16T03:42:02;100333.53;;;8.72;100.00
49645;BME280;36494;50.730;-1.932;2023-03-16T03:44:28;100335.32;;;8.72;100.00
49645;BME280;36494;50.730;-1.932;2023-03-16T03:46:53;100327.05;;;8.68;100.00
49645;BME280;36494;50.730;-1.932;2023-03-16T03:49:18;100324.93;;;8.72;100.00
49645;BME280;36494;50.730;-1.932;2023-03-16T03:51:44;100322.70;;;8.74;100.00
49645;BME280;36494;50.730;-1.932;2023-03-16T03:54:09;100319.63;;;8.75;100.00
49645;BME280;36494;50.730;-1.932;2023-03-16T03:56:35;100318.39;;;8.75;100.00
49645;BME280;36494;50.730;-1.932;2023-03-16T03:59:00;100313.44;;;8.73;100.00
49645;BME280;36494;50.730;-1.932;2023-03-16T04:01:25;100310.05;;;8.67;100.00
49645;BME280;36494;50.730;-1.932;2023-03-16T04:03:50;100309.87;;;8.68;100.00
49645;BME280;36494;50.730;-1.932;2023-03-16T04:06:15;100307.28;;;8.74;100.00
49645;BME280;36494;50.730;-1.932;2023-03-16T04:08:41;100308.15;;;8.71;100.00
49645;BME280;36494;50.730;-1.932;2023-03-16T04:11:05;100303.51;;;8.65;100.00
49645;BME280;36494;50.730;-1.932;2023-03-16T04:13:31;100301.40;;;8.71;100.00
49645;BME280;36494;50.730;-1.932;2023-03-16T04:15:56;100299.88;;;8.71;100.00
49645;BME280;36494;50.730;-1.932;2023-03-16T04:18:21;100296.09;;;8.65;100.00
49645;BME280;36494;50.730;-1.932;2023-03-16T04:20:47;100299.89;;;8.73;100.00
49645;BME280;36494;50.730;-1.932;2023-03-16T04:23:12;100301.59;;;8.76;100.00
49645;BME280;36494;50.730;-1.932;2023-03-16T04:25:37;100296.81;;;8.67;100.00
49645;BME280;36494;50.730;-1.932;2023-03-16T04:28:02;100301.97;;;8.71;100.00
49645;BME280;36494;50.730;-1.932;2023-03-16T04:30:28;100296.35;;;8.64;100.00
49645;BME280;36494;50.730;-1.932;2023-03-16T04:32:53;100294.57;;;8.65;100.00
49645;BME280;36494;50.730;-1.932;2023-03-16T04:35:18;100294.72;;;8.62;100.00
49645;BME280;36494;50.730;-1.932;2023-03-16T04:37:43;100288.26;;;8.71;100.00
49645;BME280;36494;50.730;-1.932;2023-03-16T04:40:10;100286.48;;;8.77;100.00
49645;BME280;36494;50.730;-1.932;2023-03-16T04:42:34;100290.93;;;8.82;100.00
49645;BME280;36494;50.730;-1.932;2023-03-16T04:44:59;100286.88;;;8.77;100.00
49645;BME280;36494;50.730;-1.932;2023-03-16T04:47:25;100286.05;;;8.72;100.00
49645;BME280;36494;50.730;-1.932;2023-03-16T04:49:50;100286.16;;;8.73;100.00
49645;BME280;36494;50.730;-1.932;2023-03-16T04:52:15;100279.99;;;8.75;100.00
49645;BME280;36494;50.730;-1.932;2023-03-16T04:54:40;100276.33;;;8.69;100.00
49645;BME280;36494;50.730;-1.932;2023-03-16T04:57:06;100269.52;;;8.71;100.00
49645;BME280;36494;50.730;-1.932;2023-03-16T04:59:31;100264.43;;;8.71;100.00
49645;BME280;36494;50.730;-1.932;2023-03-16T05:01:57;100264.62;;;8.72;100.00
49645;BME280;36494;50.730;-1.932;2023-03-16T05:04:22;100259.64;;;8.80;100.00
49645;BME280;36494;50.730;-1.932;2023-03-16T05:06:47;100252.81;;;8.73;100.00
49645;BME280;36494;50.730;-1.932;2023-03-16T05:09:12;100256.47;;;8.79;100.00
49645;BME280;36494;50.730;-1.932;2023-03-16T05:11:38;100246.87;;;8.77;100.00
49645;BME280;36494;50.730;-1.932;2023-03-16T05:14:03;100251.60;;;8.77;100.00
49645;BME280;36494;50.730;-1.932;2023-03-16T05:16:28;100253.34;;;8.73;100.00
49645;BME280;36494;50.730;-1.932;2023-03-16T05:18:56;100257.20;;;8.79;100.00
49645;BME280;36494;50.730;-1.932;2023-03-16T05:21:19;100255.75;;;8.82;100.00
49645;BME280;36494;50.730;-1.932;2023-03-16T05:23:44;100251.69;;;8.74;100.00
49645;BME280;36494;50.730;-1.932;2023-03-16T05:26:09;100257.32;;;8.72;100.00
49645;BME280;36494;50.730;-1.932;2023-03-16T05:28:34;100254.73;;;8.73;100.00
49645;BME280;36494;50.730;-1.932;2023-03-16T05:31:00;100249.83;;;8.75;100.00
49645;BME280;36494;50.730;-1.932;2023-03-16T05:33:25;100249.75;;;8.75;100.00
49645;BME280;36494;50.730;-1.932;2023-03-16T05:35:50;100246.55;;;8.82;100.00
49645;BME280;36494;50.730;-1.932;2023-03-16T05:38:15;100243.08;;;8.74;100.00
49645;BME280;36494;50.730;-1.932;2023-03-16T05:40:40;100245.80;;;8.72;100.00
49645;BME280;36494;50.730;-1.932;2023-03-16T05:43:05;100246.56;;;8.80;100.00
49645;BME280;36494;50.730;-1.932;2023-03-16T05:45:31;100250.87;;;8.79;100.00
49645;BME280;36494;50.730;-1.932;2023-03-16T05:47:56;100255.47;;;8.78;100.00
49645;BME280;36494;50.730;-1.932;2023-03-16T05:50:21;100251.68;;;8.79;100.00
49645;BME280;36494;50.730;-1.932;2023-03-16T05:52:47;100249.45;;;8.79;100.00
49645;BME280;36494;50.730;-1.932;2023-03-16T05:55:15;100236.43;;;8.84;100.00
49645;BME280;36494;50.730;-1.932;2023-03-16T05:57:38;100229.19;;;8.83;100.00
49645;BME280;36494;50.730;-1.932;2023-03-16T06:00:05;100229.08;;;8.81;100.00
49645;BME280;36494;50.730;-1.932;2023-03-16T06:02:28;100228.09;;;8.88;100.00
49645;BME280;36494;50.730;-1.932;2023-03-16T06:04:54;100224.15;;;8.81;100.00
49645;BME280;36494;50.730;-1.932;2023-03-16T06:07:19;100231.33;;;8.76;100.00
49645;BME280;36494;50.730;-1.932;2023-03-16T06:09:44;100228.76;;;8.75;100.00
49645;BME280;36494;50.730;-1.932;2023-03-16T06:12:10;100232.40;;;8.74;100.00
49645;BME280;36494;50.730;-1.932;2023-03-16T06:14:35;100234.84;;;8.78;100.00
49645;BME280;36494;50.730;-1.932;2023-03-16T06:17:01;100230.98;;;8.77;100.00
49645;BME280;36494;50.730;-1.932;2023-03-16T06:19:26;100223.96;;;8.74;100.00
49645;BME280;36494;50.730;-1.932;2023-03-16T06:21:52;100214.40;;;8.82;100.00
49645;BME280;36494;50.730;-1.932;2023-03-16T06:24:17;100211.55;;;8.75;100.00
49645;BME280;36494;50.730;-1.932;2023-03-16T06:26:43;100209.68;;;8.73;100.00
49645;BME280;36494;50.730;-1.932;2023-03-16T06:29:09;100195.44;;;8.77;100.00
49645;BME280;36494;50.730;-1.932;2023-03-16T06:31:34;100192.55;;;8.70;100.00
49645;BME280;36494;50.730;-1.932;2023-03-16T06:34:00;100191.02;;;8.73;100.00
49645;BME280;36494;50.730;-1.932;2023-03-16T06:36:25;100184.71;;;8.71;100.00
49645;BME280;36494;50.730;-1.932;2023-03-16T06:38:51;100188.24;;;8.72;100.00
49645;BME280;36494;50.730;-1.932;2023-03-16T06:41:16;100184.11;;;8.77;100.00
49645;BME280;36494;50.730;-1.932;2023-03-16T06:43:41;100188.79;;;8.79;100.00
49645;BME280;36494;50.730;-1.932;2023-03-16T06:46:07;100184.68;;;8.75;100.00
49645;BME280;36494;50.730;-1.932;2023-03-16T06:48:32;100184.16;;;8.79;100.00
49645;BME280;36494;50.730;-1.932;2023-03-16T06:50:57;100186.70;;;8.81;100.00
49645;BME280;36494;50.730;-1.932;2023-03-16T06:53:23;100176.85;;;8.77;100.00
49645;BME280;36494;50.730;-1.932;2023-03-16T06:55:48;100173.55;;;8.69;100.00
49645;BME280;36494;50.730;-1.932;2023-03-16T06:58:13;100179.73;;;8.70;100.00
49645;BME280;36494;50.730;-1.932;2023-03-16T07:00:39;100185.54;;;8.74;100.00
49645;BME280;36494;50.730;-1.932;2023-03-16T07:03:04;100192.64;;;8.65;100.00
49645;BME280;36494;50.730;-1.932;2023-03-16T07:05:30;100185.58;;;8.66;100.00
49645;BME280;36494;50.730;-1.932;2023-03-16T07:07:55;100184.20;;;8.71;100.00
49645;BME280;36494;50.730;-1.932;2023-03-16T07:10:21;100182.28;;;8.74;100.00
49645;BME280;36494;50.730;-1.932;2023-03-16T07:12:46;100183.87;;;8.80;100.00
49645;BME280;36494;50.730;-1.932;2023-03-16T07:15:12;100189.14;;;8.75;100.00
49645;BME280;36494;50.730;-1.932;2023-03-16T07:17:37;100187.17;;;8.80;100.00
49645;BME280;36494;50.730;-1.932;2023-03-16T07:20:03;100189.05;;;8.79;100.00
49645;BME280;36494;50.730;-1.932;2023-03-16T07:22:28;100183.12;;;8.79;100.00
49645;BME280;36494;50.730;-1.932;2023-03-16T07:24:53;100183.34;;;8.86;100.00
49645;BME280;36494;50.730;-1.932;2023-03-16T07:27:19;100175.56;;;8.97;100.00
49645;BME280;36494;50.730;-1.932;2023-03-16T07:29:44;100162.90;;;8.91;100.00
49645;BME280;36494;50.730;-1.932;2023-03-16T07:32:10;100171.97;;;8.84;100.00
49645;BME280;36494;50.730;-1.932;2023-03-16T07:34:35;100176.09;;;8.82;100.00
49645;BME280;36494;50.730;-1.932;2023-03-16T07:37:00;100183.90;;;8.81;100.00
49645;BME280;36494;50.730;-1.932;2023-03-16T07:39:25;100172.37;;;8.95;100.00
49645;BME280;36494;50.730;-1.932;2023-03-16T07:41:50;100181.39;;;8.89;100.00
49645;BME280;36494;50.730;-1.932;2023-03-16T07:44:16;100180.14;;;8.85;100.00
49645;BME280;36494;50.730;-1.932;2023-03-16T07:46:41;100185.28;;;8.84;100.00
49645;BME280;36494;50.730;-1.932;2023-03-16T07:49:07;100184.28;;;8.90;100.00
49645;BME280;36494;50.730;-1.932;2023-03-16T07:51:32;100183.72;;;8.90;100.00
49645;BME280;36494;50.730;-1.932;2023-03-16T07:53:57;100185.81;;;8.94;100.00
49645;BME280;36494;50.730;-1.932;2023-03-16T07:56:22;100184.03;;;9.01;100.00
49645;BME280;36494;50.730;-1.932;2023-03-16T07:58:48;100167.64;;;8.98;100.00
49645;BME280;36494;50.730;-1.932;2023-03-16T08:01:13;100165.99;;;9.02;100.00
49645;BME280;36494;50.730;-1.932;2023-03-16T08:03:39;100160.84;;;9.01;100.00
49645;BME280;36494;50.730;-1.932;2023-03-16T08:06:04;100155.62;;;9.03;100.00
49645;BME280;36494;50.730;-1.932;2023-03-16T08:08:29;100154.76;;;9.13;100.00
49645;BME280;36494;50.730;-1.932;2023-03-16T08:10:55;100146.89;;;9.11;100.00
49645;BME280;36494;50.730;-1.932;2023-03-16T08:13:21;100143.22;;;9.17;100.00
49645;BME280;36494;50.730;-1.932;2023-03-16T08:15:46;100137.12;;;9.22;100.00
49645;BME280;36494;50.730;-1.932;2023-03-16T08:18:11;100139.31;;;9.27;100.00
49645;BME280;36494;50.730;-1.932;2023-03-16T08:20:37;100138.60;;;9.19;100.00
49645;BME280;36494;50.730;-1.932;2023-03-16T08:23:02;100150.22;;;9.28;100.00
49645;BME280;36494;50.730;-1.932;2023-03-16T08:25:27;100146.03;;;9.26;100.00
49645;BME280;36494;50.730;-1.932;2023-03-16T08:27:53;100158.16;;;9.26;100.00
49645;BME280;36494;50.730;-1.932;2023-03-16T08:30:19;100157.02;;;9.24;100.00
49645;BME280;36494;50.730;-1.932;2023-03-16T08:32:44;100162.74;;;9.18;100.00
49645;BME280;36494;50.730;-1.932;2023-03-16T08:35:11;100162.84;;;9.17;100.00
49645;BME280;36494;50.730;-1.932;2023-03-16T08:37:34;100156.49;;;9.17;100.00
49645;BME280;36494;50.730;-1.932;2023-03-16T08:40:00;100157.02;;;9.25;100.00
49645;BME280;36494;50.730;-1.932;2023-03-16T08:42:25;100156.60;;;9.19;100.00
49645;BME280;36494;50.730;-1.932;2023-03-16T08:44:50;100159.73;;;9.17;100.00
49645;BME280;36494;50.730;-1.932;2023-03-16T08:47:15;100158.70;;;9.18;100.00
49645;BME280;36494;50.730;-1.932;2023-03-16T08:49:40;100146.73;;;9.15;100.00
49645;BME280;36494;50.730;-1.932;2023-03-16T08:52:06;100150.62;;;9.16;100.00
49645;BME280;36494;50.730;-1.932;2023-03-16T08:54:31;100147.73;;;9.23;100.00
49645;BME280;36494;50.730;-1.932;2023-03-16T08:56:56;100134.86;;;9.25;100.00
49645;BME280;36494;50.730;-1.932;2023-03-16T08:59:21;100134.71;;;9.31;100.00
49645;BME280;36494;50.730;-1.932;2023-03-16T09:01:46;100131.53;;;9.44;100.00
49645;BME280;36494;50.730;-1.932;2023-03-16T09:04:12;100129.73;;;9.60;100.00
49645;BME280;36494;50.730;-1.932;2023-03-16T09:06:38;100125.40;;;9.72;100.00
49645;BME280;36494;50.730;-1.932;2023-03-16T09:09:04;100127.20;;;9.81;100.00
49645;BME280;36494;50.730;-1.932;2023-03-16T09:11:30;100128.78;;;9.93;100.00
49645;BME280;36494;50.730;-1.932;2023-03-16T09:13:55;100125.27;;;10.04;100.00
49645;BME280;36494;50.730;-1.932;2023-03-16T09:16:21;100120.34;;;10.07;100.00
49645;BME280;36494;50.730;-1.932;2023-03-16T09:18:46;100114.41;;;10.12;100.00
49645;BME280;36494;50.730;-1.932;2023-03-16T09:21:11;100114.49;;;10.06;100.00
49645;BME280;36494;50.730;-1.932;2023-03-16T09:23:37;100134.88;;;10.07;100.00
49645;BME280;36494;50.730;-1.932;2023-03-16T09:26:04;100133.73;;;9.98;100.00
49645;BME280;36494;50.730;-1.932;2023-03-16T09:28:28;100139.01;;;9.78;100.00
49645;BME280;36494;50.730;-1.932;2023-03-16T09:30:53;100142.60;;;9.75;100.00
49645;BME280;36494;50.730;-1.932;2023-03-16T09:33:18;100142.24;;;9.72;100.00
49645;BME280;36494;50.730;-1.932;2023-03-16T09:35:44;100134.72;;;9.64;100.00
49645;BME280;36494;50.730;-1.932;2023-03-16T09:38:09;100136.40;;;9.75;100.00
49645;BME280;36494;50.730;-1.932;2023-03-16T09:40:35;100131.44;;;9.81;100.00
49645;BME280;36494;50.730;-1.932;2023-03-16T09:43:13;100128.54;;;9.71;100.00
49645;BME280;36494;50.730;-1.932;2023-03-16T09:45:31;100137.06;;;9.84;100.00
49645;BME280;36494;50.730;-1.932;2023-03-16T09:47:55;100128.09;;;9.60;100.00
49645;BME280;36494;50.730;-1.932;2023-03-16T09:50:22;100135.98;;;9.53;100.00
49645;BME280;36494;50.730;-1.932;2023-03-16T09:52:46;100138.12;;;9.67;100.00
49645;BME280;36494;50.730;-1.932;2023-03-16T09:55:14;100138.33;;;9.68;100.00
49645;BME280;36494;50.730;-1.932;2023-03-16T09:57:36;100142.63;;;9.71;100.00
49645;BME280;36494;50.730;-1.932;2023-03-16T10:00:06;100134.10;;;9.77;100.00
49645;BME280;36494;50.730;-1.932;2023-03-16T10:02:43;100129.84;;;9.90;100.00
49645;BME280;36494;50.730;-1.932;2023-03-16T10:04:56;100126.71;;;9.94;100.00
49645;BME280;36494;50.730;-1.932;2023-03-16T10:07:22;100128.54;;;9.88;100.00
49645;BME280;36494;50.730;-1.932;2023-03-16T10:09:44;100130.14;;;9.90;100.00
49645;BME280;36494;50.730;-1.932;2023-03-16T10:12:06;100132.71;;;10.08;100.00
49645;BME280;36494;50.730;-1.932;2023-03-16T10:14:37;100134.40;;;10.29;100.00
49645;BME280;36494;50.730;-1.932;2023-03-16T10:17:00;100127.21;;;10.06;100.00
49645;BME280;36494;50.730;-1.932;2023-03-16T10:19:29;100127.00;;;10.15;100.00
49645;BME280;36494;50.730;-1.932;2023-03-16T10:21:49;100118.19;;;10.34;100.00
49645;BME280;36494;50.730;-1.932;2023-03-16T10:24:22;100115.53;;;10.31;100.00
49645;BME280;36494;50.730;-1.932;2023-03-16T10:26:42;100120.29;;;10.33;100.00
49645;BME280;36494;50.730;-1.932;2023-03-16T10:29:04;100123.57;;;10.26;100.00
49645;BME280;36494;50.730;-1.932;2023-03-16T10:31:29;100123.14;;;10.37;100.00
49645;BME280;36494;50.730;-1.932;2023-03-16T10:34:03;100117.38;;;10.52;100.00
49645;BME280;36494;50.730;-1.932;2023-03-16T10:36:26;100121.25;;;10.39;100.00
49645;BME280;36494;50.730;-1.932;2023-03-16T10:38:46;100116.39;;;10.24;100.00
49645;BME280;36494;50.730;-1.932;2023-03-16T10:41:19;100129.24;;;10.48;100.00
49645;BME280;36494;50.730;-1.932;2023-03-16T10:43:36;100131.98;;;10.33;100.00
49645;BME280;36494;50.730;-1.932;2023-03-16T10:46:01;100133.18;;;10.28;100.00
49645;BME280;36494;50.730;-1.932;2023-03-16T10:48:30;100123.27;;;10.33;100.00
49645;BME280;36494;50.730;-1.932;2023-03-16T10:50:54;100120.62;;;10.28;100.00
49645;BME280;36494;50.730;-1.932;2023-03-16T10:53:21;100117.18;;;10.23;100.00
49645;BME280;36494;50.730;-1.932;2023-03-16T10:55:43;100109.62;;;10.04;100.00
49645;BME280;36494;50.730;-1.932;2023-03-16T10:58:08;100107.27;;;10.23;100.00
49645;BME280;36494;50.730;-1.932;2023-03-16T11:00:35;100110.39;;;10.31;100.00
49645;BME280;36494;50.730;-1.932;2023-03-16T11:02:59;100113.43;;;10.39;100.00
49645;BME280;36494;50.730;-1.932;2023-03-16T11:05:28;100101.23;;;10.37;100.00
49645;BME280;36494;50.730;-1.932;2023-03-16T11:07:53;100097.00;;;10.25;100.00
49645;BME280;36494;50.730;-1.932;2023-03-16T11:10:25;100102.53;;;10.25;100.00
49645;BME280;36494;50.730;-1.932;2023-03-16T11:12:46;100091.50;;;10.35;100.00
49645;BME280;36494;50.730;-1.932;2023-03-16T11:15:12;100098.34;;;10.27;100.00
49645;BME280;36494;50.730;-1.932;2023-03-16T11:17:35;100091.78;;;10.38;100.00
49645;BME280;36494;50.730;-1.932;2023-03-16T11:20:01;100084.13;;;10.51;100.00
49645;BME280;36494;50.730;-1.932;2023-03-16T11:22:24;100078.52;;;10.36;100.00
49645;BME280;36494;50.730;-1.932;2023-03-16T11:24:52;100082.67;;;10.56;100.00
49645;BME280;36494;50.730;-1.932;2023-03-16T11:27:20;100069.29;;;10.80;100.00
49645;BME280;36494;50.730;-1.932;2023-03-16T11:29:48;100053.51;;;10.82;100.00
49645;BME280;36494;50.730;-1.932;2023-03-16T11:32:08;100054.33;;;10.65;100.00
49645;BME280;36494;50.730;-1.932;2023-03-16T11:34:31;100059.21;;;10.41;100.00
49645;BME280;36494;50.730;-1.932;2023-03-16T11:36:56;100043.88;;;10.83;100.00
49645;BME280;36494;50.730;-1.932;2023-03-16T11:39:29;100044.25;;;10.70;100.00
49645;BME280;36494;50.730;-1.932;2023-03-16T11:41:55;100047.01;;;10.71;100.00
49645;BME280;36494;50.730;-1.932;2023-03-16T11:44:16;100050.92;;;10.95;100.00
49645;BME280;36494;50.730;-1.932;2023-03-16T11:46:41;100045.91;;;10.74;100.00
49645;BME280;36494;50.730;-1.932;2023-03-16T11:51:34;100049.67;;;10.65;100.00
49645;BME280;36494;50.730;-1.932;2023-03-16T11:54:00;100045.61;;;10.62;100.00
49645;BME280;36494;50.730;-1.932;2023-03-16T11:56:25;100044.74;;;10.63;100.00
49645;BME280;36494;50.730;-1.932;2023-03-16T11:58:52;100050.39;;;10.45;100.00
49645;BME280;36494;50.730;-1.932;2023-03-16T12:01:15;100046.89;;;10.47;100.00
49645;BME280;36494;50.730;-1.932;2023-03-16T12:03:43;100056.95;;;10.12;100.00
49645;BME280;36494;50.730;-1.932;2023-03-16T12:06:03;100058.06;;;10.47;100.00
49645;BME280;36494;50.730;-1.932;2023-03-16T12:08:43;100046.96;;;10.55;100.00
49645;BME280;36494;50.730;-1.932;2023-03-16T12:10:55;100043.27;;;10.71;100.00
49645;BME280;36494;50.730;-1.932;2023-03-16T12:13:25;100039.03;;;10.66;100.00
49645;BME280;36494;50.730;-1.932;2023-03-16T12:15:44;100040.22;;;10.85;100.00
49645;BME280;36494;50.730;-1.932;2023-03-16T12:18:12;100029.23;;;10.75;100.00
49645;BME280;36494;50.730;-1.932;2023-03-16T12:20:37;100030.08;;;10.90;100.00
49645;BME280;36494;50.730;-1.932;2023-03-16T12:22:59;100022.83;;;11.06;100.00
49645;BME280;36494;50.730;-1.932;2023-03-16T12:25:25;100014.97;;;11.21;100.00
49645;BME280;36494;50.730;-1.932;2023-03-16T12:27:49;100024.76;;;11.36;100.00
49645;BME280;36494;50.730;-1.932;2023-03-16T12:30:23;100028.21;;;11.16;100.00
49645;BME280;36494;50.730;-1.932;2023-03-16T12:32:44;100019.63;;;10.98;100.00
49645;BME280;36494;50.730;-1.932;2023-03-16T12:35:17;100007.85;;;11.07;100.00